sensor_id;sensor_type;location;lat;lon;timestamp;temperature;humidity
9219;DHT22;4644;48.858;9.184;2023-09-30T00:00:56;16.70;99.90
9219;DHT22;4644;48.858;9.184;2023-09-30T00:03:25;16.70;99.90
9219;DHT22;4644;48.858;9.184;2023-09-30T00:05:52;16.60;99.90
9219;DHT22;4644;48.858;9.184;2023-09-30T00:08:19;16.60;99.90
9219;DHT22;4644;48.858;9.184;2023-09-30T00:10:46;16.60;99.90
9219;DHT22;4644;48.858;9.184;2023-09-30T00:13:13;16.50;99.90
9219;DHT22;4644;48.858;9.184;2023-09-30T00:15:40;16.50;99.90
9219;DHT22;4644;48.858;9.184;2023-09-30T00:18:07;16.50;99.90
9219;DHT22;4644;48.858;9.184;2023-09-30T00:20:36;16.50;99.90
9219;DHT22;4644;48.858;9.184;2023-09-30T00:23:03;16.50;99.90
9219;DHT22;4644;48.858;9.184;2023-09-30T00:25:31;16.50;99.90
9219;DHT22;4644;48.858;9.184;2023-09-30T00:27:58;16.60;99.90
9219;DHT22;4644;48.858;9.184;2023-09-30T00:30:25;16.50;99.90
9219;DHT22;4644;48.858;9.184;2023-09-30T00:32:52;16.60;99.90
9219;DHT22;4644;48.858;9.184;2023-09-30T00:35:19;16.50;99.90
9219;DHT22;4644;48.858;9.184;2023-09-30T00:37:47;16.40;99.90
9219;DHT22;4644;48.858;9.184;2023-09-30T00:40:14;16.40;99.90
9219;DHT22;4644;48.858;9.184;2023-09-30T00:42:42;16.30;99.90
9219;DHT22;4644;48.858;9.184;2023-09-30T00:45:10;16.20;99.90
9219;DHT22;4644;48.858;9.184;2023-09-30T00:47:37;16.20;99.90
9219;DHT22;4644;48.858;9.184;2023-09-30T00:50:05;16.10;99.90
9219;DHT22;4644;48.858;9.184;2023-09-30T00:52:35;16.00;99.90
9219;DHT22;4644;48.858;9.184;2023-09-30T00:55:07;16.00;99.90
9219;DHT22;4644;48.858;9.184;2023-09-30T00:57:36;16.00;99.90
9219;DHT22;4644;48.858;9.184;2023-09-30T01:00:05;15.90;99.90
9219;DHT22;4644;48.858;9.184;2023-09-30T01:02:33;15.90;99.90
9219;DHT22;4644;48.858;9.184;2023-09-30T01:05:01;15.90;99.90
9219;DHT22;4644;48.858;9.184;2023-09-30T01:07:28;15.80;99.90
9219;DHT22;4644;48.858;9.184;2023-09-30T01:09:55;15.80;99.90
9219;DHT22;4644;48.858;9.184;2023-09-30T01:12:23;15.70;99.90
9219;DHT22;4644;48.858;9.184;2023-09-30T01:14:50;15.70;99.90
9219;DHT22;4644;48.858;9.184;2023-09-30T01:17:17;15.70;99.90
9219;DHT22;4644;48.858;9.184;2023-09-30T01:19:44;15.70;99.90
9219;DHT22;4644;48.858;9.184;2023-09-30T01:22:13;15.60;99.90
9219;DHT22;4644;48.858;9.184;2023-09-30T01:24:42;15.60;99.90
9219;DHT22;4644;48.858;9.184;2023-09-30T01:27:10;15.60;99.90
9219;DHT22;4644;48.858;9.184;2023-09-30T01:29:38;15.60;99.90
9219;DHT22;4644;48.858;9.184;2023-09-30T01:32:05;15.60;99.90
9219;DHT22;4644;48.858;9.184;2023-09-30T01:34:35;15.60;99.90
9219;DHT22;4644;48.858;9.184;2023-09-30T01:37:02;15.60;99.90
9219;DHT22;4644;48.858;9.184;2023-09-30T01:39:30;15.50;99.90
9219;DHT22;4644;48.858;9.184;2023-09-30T01:41:58;15.50;99.90
9219;DHT22;4644;48.858;9.184;2023-09-30T01:44:25;15.40;99.90
9219;DHT22;4644;48.858;9.184;2023-09-30T01:46:52;15.40;99.90
9219;DHT22;4644;48.858;9.184;2023-09-30T01:49:19;15.40;99.90
9219;DHT22;4644;48.858;9.184;2023-09-30T01:51:49;15.40;99.90
9219;DHT22;4644;48.858;9.184;2023-09-30T01:54:16;15.30;99.90
9219;DHT22;4644;48.858;9.184;2023-09-30T01:56:44;15.30;99.90
9219;DHT22;4644;48.858;9.184;2023-09-30T01:59:12;15.30;99.90
9219;DHT22;4644;48.858;9.184;2023-09-30T02:01:38;15.20;99.90
9219;DHT22;4644;48.858;9.184;2023-09-30T02:04:06;15.20;99.90
9219;DHT22;4644;48.858;9.184;2023-09-30T02:06:33;15.20;99.90
9219;DHT22;4644;48.858;9.184;2023-09-30T02:09:01;15.20;99.90
9219;DHT22;4644;48.858;9.184;2023-09-30T02:11:28;15.10;99.90
9219;DHT22;4644;48.858;9.184;2023-09-30T02:13:58;15.10;99.90
9219;DHT22;4644;48.858;9.184;2023-09-30T02:16:27;15.10;99.90
9219;DHT22;4644;48.858;9.184;2023-09-30T02:18:54;15.00;99.90
9219;DHT22;4644;48.858;9.184;2023-09-30T02:21:21;15.00;99.90
9219;DHT22;4644;48.858;9.184;2023-09-30T02:23:48;15.10;99.90
9219;DHT22;4644;48.858;9.184;2023-09-30T02:26:20;15.00;99.90
9219;DHT22;4644;48.858;9.184;2023-09-30T02:28:48;15.00;99.90
9219;DHT22;4644;48.858;9.184;2023-09-30T02:31:16;15.00;99.90
9219;DHT22;4644;48.858;9.184;2023-09-30T02:33:44;15.00;99.90
9219;DHT22;4644;48.858;9.184;2023-09-30T02:36:11;15.00;99.90
9219;DHT22;4644;48.858;9.184;2023-09-30T02:38:38;15.00;99.90
9219;DHT22;4644;48.858;9.184;2023-09-30T02:41:06;15.00;99.90
9219;DHT22;4644;48.858;9.184;2023-09-30T02:43:33;15.00;99.90
9219;DHT22;4644;48.858;9.184;2023-09-30T02:46:00;15.00;99.90
9219;DHT22;4644;48.858;9.184;2023-09-30T02:48:28;15.10;99.90
9219;DHT22;4644;48.858;9.184;2023-09-30T02:50:56;15.10;99.90
9219;DHT22;4644;48.858;9.184;2023-09-30T02:53:22;15.10;99.90
9219;DHT22;4644;48.858;9.184;2023-09-30T02:55:49;15.10;99.90
9219;DHT22;4644;48.858;9.184;2023-09-30T02:58:24;15.10;99.90
9219;DHT22;4644;48.858;9.184;2023-09-30T03:00:51;15.10;99.90
9219;DHT22;4644;48.858;9.184;2023-09-30T03:03:18;15.10;99.90
9219;DHT22;4644;48.858;9.184;2023-09-30T03:05:46;15.10;99.90
9219;DHT22;4644;48.858;9.184;2023-09-30T03:08:15;15.10;99.90
9219;DHT22;4644;48.858;9.184;2023-09-30T03:10:42;15.10;99.90
9219;DHT22;4644;48.858;9.184;2023-09-30T03:13:09;15.10;99.90
9219;DHT22;4644;48.858;9.184;2023-09-30T03:15:36;15.10;99.90
9219;DHT22;4644;48.858;9.184;2023-09-30T03:18:04;15.10;99.90
9219;DHT22;4644;48.858;9.184;2023-09-30T03:20:31;15.10;99.90
9219;DHT22;4644;48.858;9.184;2023-09-30T03:23:00;15.10;99.90
9219;DHT22;4644;48.858;9.184;2023-09-30T03:25:28;15.10;99.90
9219;DHT22;4644;48.858;9.184;2023-09-30T03:27:56;15.10;99.90
9219;DHT22;4644;48.858;9.184;2023-09-30T03:30:23;15.10;99.90
9219;DHT22;4644;48.858;9.184;2023-09-30T03:32:50;15.20;99.90
9219;DHT22;4644;48.858;9.184;2023-09-30T03:35:17;15.20;99.90
9219;DHT22;4644;48.858;9.184;2023-09-30T03:37:44;15.10;99.90
9219;DHT22;4644;48.858;9.184;2023-09-30T03:40:14;15.20;99.90
9219;DHT22;4644;48.858;9.184;2023-09-30T03:42:46;15.20;99.90
9219;DHT22;4644;48.858;9.184;2023-09-30T03:45:15;15.20;99.90
9219;DHT22;4644;48.858;9.184;2023-09-30T03:47:43;15.30;99.90
9219;DHT22;4644;48.858;9.184;2023-09-30T03:50:11;15.30;99.90
9219;DHT22;4644;48.858;9.184;2023-09-30T03:52:41;15.40;99.90
9219;DHT22;4644;48.858;9.184;2023-09-30T03:55:10;15.30;99.90
9219;DHT22;4644;48.858;9.184;2023-09-30T03:57:39;15.30;99.90
9219;DHT22;4644;48.858;9.184;2023-09-30T04:00:07;15.30;99.90
9219;DHT22;4644;48.858;9.184;2023-09-30T04:02:37;15.20;99.90
9219;DHT22;4644;48.858;9.184;2023-09-30T04:05:04;15.20;99.90
9219;DHT22;4644;48.858;9.184;2023-09-30T04:07:33;15.20;99.90
9219;DHT22;4644;48.858;9.184;2023-09-30T04:10:02;15.20;99.90
9219;DHT22;4644;48.858;9.184;2023-09-30T04:12:30;15.20;99.90
9219;DHT22;4644;48.858;9.184;2023-09-30T04:14:59;15.20;99.90
9219;DHT22;4644;48.858;9.184;2023-09-30T04:17:26;15.20;99.90
9219;DHT22;4644;48.858;9.184;2023-09-30T04:19:53;15.20;99.90
9219;DHT22;4644;48.858;9.184;2023-09-30T04:22:20;15.20;99.90
9219;DHT22;4644;48.858;9.184;2023-09-30T04:24:48;15.30;99.90
9219;DHT22;4644;48.858;9.184;2023-09-30T04:27:16;15.30;99.90
9219;DHT22;4644;48.858;9.184;2023-09-30T04:29:43;15.30;99.90
9219;DHT22;4644;48.858;9.184;2023-09-30T04:32:11;15.30;99.90
9219;DHT22;4644;48.858;9.184;2023-09-30T04:34:39;15.20;99.90
9219;DHT22;4644;48.858;9.184;2023-09-30T04:37:06;15.30;99.90
9219;DHT22;4644;48.858;9.184;2023-09-30T04:39:34;15.20;99.90
9219;DHT22;4644;48.858;9.184;2023-09-30T04:42:02;15.20;99.90
9219;DHT22;4644;48.858;9.184;2023-09-30T04:44:29;15.20;99.90
9219;DHT22;4644;48.858;9.184;2023-09-30T04:46:56;15.20;99.90
9219;DHT22;4644;48.858;9.184;2023-09-30T04:49:25;15.30;99.90
9219;DHT22;4644;48.858;9.184;2023-09-30T04:51:53;15.20;99.90
9219;DHT22;4644;48.858;9.184;2023-09-30T04:54:20;15.30;99.90
9219;DHT22;4644;48.858;9.184;2023-09-30T04:56:48;15.20;99.90
9219;DHT22;4644;48.858;9.184;2023-09-30T04:59:16;15.20;99.90
9219;DHT22;4644;48.858;9.184;2023-09-30T05:01:43;15.20;99.90
9219;DHT22;4644;48.858;9.184;2023-09-30T05:04:10;15.20;99.90
9219;DHT22;4644;48.858;9.184;2023-09-30T05:06:38;15.20;99.90
9219;DHT22;4644;48.858;9.184;2023-09-30T05:09:05;15.10;99.90
9219;DHT22;4644;48.858;9.184;2023-09-30T05:11:32;15.10;99.90
9219;DHT22;4644;48.858;9.184;2023-09-30T05:14:00;15.10;99.90
9219;DHT22;4644;48.858;9.184;2023-09-30T05:16:30;15.10;99.90
9219;DHT22;4644;48.858;9.184;2023-09-30T05:18:57;15.10;99.90
9219;DHT22;4644;48.858;9.184;2023-09-30T05:21:24;15.10;99.90
9219;DHT22;4644;48.858;9.184;2023-09-30T05:23:53;15.10;99.90
9219;DHT22;4644;48.858;9.184;2023-09-30T05:26:20;15.00;99.90
9219;DHT22;4644;48.858;9.184;2023-09-30T05:28:47;15.00;99.90
9219;DHT22;4644;48.858;9.184;2023-09-30T05:31:14;15.00;99.90
9219;DHT22;4644;48.858;9.184;2023-09-30T05:33:41;15.00;99.90
9219;DHT22;4644;48.858;9.184;2023-09-30T05:36:08;15.00;99.90
9219;DHT22;4644;48.858;9.184;2023-09-30T05:38:35;15.00;99.90
9219;DHT22;4644;48.858;9.184;2023-09-30T05:41:03;15.00;99.90
9219;DHT22;4644;48.858;9.184;2023-09-30T05:43:32;15.00;99.90
9219;DHT22;4644;48.858;9.184;2023-09-30T05:45:59;14.90;99.90
9219;DHT22;4644;48.858;9.184;2023-09-30T05:48:26;14.90;99.90
9219;DHT22;4644;48.858;9.184;2023-09-30T05:50:53;15.00;99.90
9219;DHT22;4644;48.858;9.184;2023-09-30T05:53:20;14.90;99.90
9219;DHT22;4644;48.858;9.184;2023-09-30T05:55:47;15.00;99.90
9219;DHT22;4644;48.858;9.184;2023-09-30T05:58:15;15.00;99.90
9219;DHT22;4644;48.858;9.184;2023-09-30T06:00:43;15.00;99.90
9219;DHT22;4644;48.858;9.184;2023-09-30T06:03:10;15.00;99.90
9219;DHT22;4644;48.858;9.184;2023-09-30T06:05:39;15.10;99.90
9219;DHT22;4644;48.858;9.184;2023-09-30T06:08:08;15.10;99.90
9219;DHT22;4644;48.858;9.184;2023-09-30T06:10:36;15.20;99.90
9219;DHT22;4644;48.858;9.184;2023-09-30T06:13:08;15.20;99.90
9219;DHT22;4644;48.858;9.184;2023-09-30T06:15:38;15.20;99.90
9219;DHT22;4644;48.858;9.184;2023-09-30T06:18:05;15.20;99.90
9219;DHT22;4644;48.858;9.184;2023-09-30T06:20:32;15.20;99.90
9219;DHT22;4644;48.858;9.184;2023-09-30T06:23:00;15.30;99.90
9219;DHT22;4644;48.858;9.184;2023-09-30T06:25:27;15.40;99.90
9219;DHT22;4644;48.858;9.184;2023-09-30T06:27:56;15.40;99.90
9219;DHT22;4644;48.858;9.184;2023-09-30T06:30:23;15.40;99.90
9219;DHT22;4644;48.858;9.184;2023-09-30T06:32:56;15.50;99.90
9219;DHT22;4644;48.858;9.184;2023-09-30T06:35:25;15.50;99.90
9219;DHT22;4644;48.858;9.184;2023-09-30T06:37:52;15.50;99.90
9219;DHT22;4644;48.858;9.184;2023-09-30T06:40:20;15.60;99.90
9219;DHT22;4644;48.858;9.184;2023-09-30T06:42:47;15.60;99.90
9219;DHT22;4644;48.858;9.184;2023-09-30T06:45:14;15.60;99.90
9219;DHT22;4644;48.858;9.184;2023-09-30T06:47:41;15.60;99.90
9219;DHT22;4644;48.858;9.184;2023-09-30T06:50:11;15.60;99.90
9219;DHT22;4644;48.858;9.184;2023-09-30T06:52:43;15.70;99.90
9219;DHT22;4644;48.858;9.184;2023-09-30T06:55:11;15.80;99.90
9219;DHT22;4644;48.858;9.184;2023-09-30T06:57:40;15.80;99.90
9219;DHT22;4644;48.858;9.184;2023-09-30T07:00:09;15.80;99.90
9219;DHT22;4644;48.858;9.184;2023-09-30T07:02:37;15.80;99.90
9219;DHT22;4644;48.858;9.184;2023-09-30T07:05:06;15.80;99.90
9219;DHT22;4644;48.858;9.184;2023-09-30T07:07:35;15.80;99.90
9219;DHT22;4644;48.858;9.184;2023-09-30T07:10:03;15.90;99.90
9219;DHT22;4644;48.858;9.184;2023-09-30T07:12:30;16.00;99.90
9219;DHT22;4644;48.858;9.184;2023-09-30T07:15:00;16.10;99.90
9219;DHT22;4644;48.858;9.184;2023-09-30T07:17:28;16.20;99.90
9219;DHT22;4644;48.858;9.184;2023-09-30T07:19:55;16.20;99.90
9219;DHT22;4644;48.858;9.184;2023-09-30T07:22:22;16.30;99.90
9219;DHT22;4644;48.858;9.184;2023-09-30T07:24:51;16.40;99.90
9219;DHT22;4644;48.858;9.184;2023-09-30T07:27:19;16.60;99.90
9219;DHT22;4644;48.858;9.184;2023-09-30T07:29:46;16.80;99.90
9219;DHT22;4644;48.858;9.184;2023-09-30T07:32:13;17.10;99.90
9219;DHT22;4644;48.858;9.184;2023-09-30T07:34:40;17.20;99.90
9219;DHT22;4644;48.858;9.184;2023-09-30T07:37:07;17.20;99.90
9219;DHT22;4644;48.858;9.184;2023-09-30T07:39:35;17.30;99.90
9219;DHT22;4644;48.858;9.184;2023-09-30T07:42:04;17.40;99.90
9219;DHT22;4644;48.858;9.184;2023-09-30T07:44:31;17.50;99.90
9219;DHT22;4644;48.858;9.184;2023-09-30T07:46:58;17.70;99.90
9219;DHT22;4644;48.858;9.184;2023-09-30T07:49:25;17.80;99.90
9219;DHT22;4644;48.858;9.184;2023-09-30T07:51:52;17.70;99.90
9219;DHT22;4644;48.858;9.184;2023-09-30T07:54:19;17.70;99.90
9219;DHT22;4644;48.858;9.184;2023-09-30T07:56:46;17.90;99.90
9219;DHT22;4644;48.858;9.184;2023-09-30T07:59:16;17.90;99.90
9219;DHT22;4644;48.858;9.184;2023-09-30T08:01:43;17.70;99.90
9219;DHT22;4644;48.858;9.184;2023-09-30T08:04:10;18.10;99.90
9219;DHT22;4644;48.858;9.184;2023-09-30T08:06:37;18.40;99.90
9219;DHT22;4644;48.858;9.184;2023-09-30T08:09:06;18.70;99.90
9219;DHT22;4644;48.858;9.184;2023-09-30T08:11:37;18.90;99.90
9219;DHT22;4644;48.858;9.184;2023-09-30T08:14:04;19.00;99.90
9219;DHT22;4644;48.858;9.184;2023-09-30T08:16:33;19.20;99.90
9219;DHT22;4644;48.858;9.184;2023-09-30T08:19:00;19.30;99.90
9219;DHT22;4644;48.858;9.184;2023-09-30T08:21:27;19.50;99.90
9219;DHT22;4644;48.858;9.184;2023-09-30T08:23:54;19.70;99.90
9219;DHT22;4644;48.858;9.184;2023-09-30T08:26:22;19.40;99.90
9219;DHT22;4644;48.858;9.184;2023-09-30T08:28:49;19.30;99.90
9219;DHT22;4644;48.858;9.184;2023-09-30T08:31:16;19.30;99.90
9219;DHT22;4644;48.858;9.184;2023-09-30T08:33:45;19.10;99.90
9219;DHT22;4644;48.858;9.184;2023-09-30T08:36:12;19.10;99.90
9219;DHT22;4644;48.858;9.184;2023-09-30T08:38:40;19.20;99.90
9219;DHT22;4644;48.858;9.184;2023-09-30T08:41:11;19.00;99.90
9219;DHT22;4644;48.858;9.184;2023-09-30T08:43:41;19.00;99.90
9219;DHT22;4644;48.858;9.184;2023-09-30T08:46:08;19.00;99.90
9219;DHT22;4644;48.858;9.184;2023-09-30T08:48:36;18.90;99.90
9219;DHT22;4644;48.858;9.184;2023-09-30T08:51:05;19.10;99.90
9219;DHT22;4644;48.858;9.184;2023-09-30T08:53:32;19.40;99.90
9219;DHT22;4644;48.858;9.184;2023-09-30T08:56:00;19.60;99.90
9219;DHT22;4644;48.858;9.184;2023-09-30T08:58:31;19.70;99.90
9219;DHT22;4644;48.858;9.184;2023-09-30T09:00:58;20.00;99.90
9219;DHT22;4644;48.858;9.184;2023-09-30T09:03:28;20.40;99.90
9219;DHT22;4644;48.858;9.184;2023-09-30T09:05:57;20.60;99.90
9219;DHT22;4644;48.858;9.184;2023-09-30T09:08:27;20.60;99.90
9219;DHT22;4644;48.858;9.184;2023-09-30T09:10:55;20.60;99.90
9219;DHT22;4644;48.858;9.184;2023-09-30T09:13:23;20.60;99.90
9219;DHT22;4644;48.858;9.184;2023-09-30T09:16:05;20.70;99.90
9219;DHT22;4644;48.858;9.184;2023-09-30T09:18:34;20.50;99.90
9219;DHT22;4644;48.858;9.184;2023-09-30T09:21:15;20.50;99.90
9219;DHT22;4644;48.858;9.184;2023-09-30T09:23:45;19.90;99.90
9219;DHT22;4644;48.858;9.184;2023-09-30T09:26:22;19.70;99.90
9219;DHT22;4644;48.858;9.184;2023-09-30T09:28:50;19.60;99.90
9219;DHT22;4644;48.858;9.184;2023-09-30T09:31:23;19.90;99.90
9219;DHT22;4644;48.858;9.184;2023-09-30T09:33:50;20.20;99.90
9219;DHT22;4644;48.858;9.184;2023-09-30T09:36:19;20.30;99.90
9219;DHT22;4644;48.858;9.184;2023-09-30T09:38:49;20.30;99.90
9219;DHT22;4644;48.858;9.184;2023-09-30T09:41:19;20.80;99.90
9219;DHT22;4644;48.858;9.184;2023-09-30T09:43:49;20.90;99.90
9219;DHT22;4644;48.858;9.184;2023-09-30T09:46:17;20.80;99.90
9219;DHT22;4644;48.858;9.184;2023-09-30T09:48:45;20.80;99.90
9219;DHT22;4644;48.858;9.184;2023-09-30T09:51:13;20.50;99.90
9219;DHT22;4644;48.858;9.184;2023-09-30T09:53:41;20.20;99.90
9219;DHT22;4644;48.858;9.184;2023-09-30T09:56:10;20.10;99.90
9219;DHT22;4644;48.858;9.184;2023-09-30T09:58:40;19.90;99.90
9219;DHT22;4644;48.858;9.184;2023-09-30T10:01:09;19.70;99.90
9219;DHT22;4644;48.858;9.184;2023-09-30T10:03:37;19.70;99.90
9219;DHT22;4644;48.858;9.184;2023-09-30T10:06:05;19.60;99.90
9219;DHT22;4644;48.858;9.184;2023-09-30T10:08:37;19.60;99.90
9219;DHT22;4644;48.858;9.184;2023-09-30T10:11:06;19.60;99.90
9219;DHT22;4644;48.858;9.184;2023-09-30T10:13:54;19.50;99.90
9219;DHT22;4644;48.858;9.184;2023-09-30T10:16:47;19.50;99.90
9219;DHT22;4644;48.858;9.184;2023-09-30T10:19:16;19.60;99.90
9219;DHT22;4644;48.858;9.184;2023-09-30T10:22:21;19.70;99.90
9219;DHT22;4644;48.858;9.184;2023-09-30T10:24:49;19.90;99.90
9219;DHT22;4644;48.858;9.184;2023-09-30T10:27:35;20.30;99.90
9219;DHT22;4644;48.858;9.184;2023-09-30T10:30:09;20.70;99.90
9219;DHT22;4644;48.858;9.184;2023-09-30T10:33:08;20.90;99.90
9219;DHT22;4644;48.858;9.184;2023-09-30T10:35:56;21.10;99.90
9219;DHT22;4644;48.858;9.184;2023-09-30T10:38:39;21.40;99.90
9219;DHT22;4644;48.858;9.184;2023-09-30T10:41:07;21.60;99.90
9219;DHT22;4644;48.858;9.184;2023-09-30T10:43:35;21.80;99.90
9219;DHT22;4644;48.858;9.184;2023-09-30T10:46:04;22.00;99.90
9219;DHT22;4644;48.858;9.184;2023-09-30T10:48:51;22.00;99.90
9219;DHT22;4644;48.858;9.184;2023-09-30T10:51:19;22.20;99.90
9219;DHT22;4644;48.858;9.184;2023-09-30T10:53:48;21.80;99.90
9219;DHT22;4644;48.858;9.184;2023-09-30T10:56:17;21.40;99.90
9219;DHT22;4644;48.858;9.184;2023-09-30T10:58:46;21.00;99.90
9219;DHT22;4644;48.858;9.184;2023-09-30T11:01:16;20.80;99.90
9219;DHT22;4644;48.858;9.184;2023-09-30T11:03:44;20.80;99.90
9219;DHT22;4644;48.858;9.184;2023-09-30T11:06:12;20.60;99.90
9219;DHT22;4644;48.858;9.184;2023-09-30T11:08:46;20.60;99.90
9219;DHT22;4644;48.858;9.184;2023-09-30T11:11:17;20.50;99.90
9219;DHT22;4644;48.858;9.184;2023-09-30T11:13:44;20.50;99.90
9219;DHT22;4644;48.858;9.184;2023-09-30T11:16:11;20.40;99.90
9219;DHT22;4644;48.858;9.184;2023-09-30T11:18:39;20.50;99.90
9219;DHT22;4644;48.858;9.184;2023-09-30T11:21:08;20.50;99.90
9219;DHT22;4644;48.858;9.184;2023-09-30T11:23:36;20.50;99.90
9219;DHT22;4644;48.858;9.184;2023-09-30T11:26:05;20.70;99.90
9219;DHT22;4644;48.858;9.184;2023-09-30T11:28:39;20.90;99.90
9219;DHT22;4644;48.858;9.184;2023-09-30T11:31:10;21.10;99.90
9219;DHT22;4644;48.858;9.184;2023-09-30T11:33:54;21.20;99.90
9219;DHT22;4644;48.858;9.184;2023-09-30T11:36:23;21.50;99.90
9219;DHT22;4644;48.858;9.184;2023-09-30T11:38:51;21.70;99.90
9219;DHT22;4644;48.858;9.184;2023-09-30T11:41:19;21.70;99.90
9219;DHT22;4644;48.858;9.184;2023-09-30T11:44:04;21.70;99.90
9219;DHT22;4644;48.858;9.184;2023-09-30T11:46:46;21.40;99.90
9219;DHT22;4644;48.858;9.184;2023-09-30T11:49:24;21.10;99.90
9219;DHT22;4644;48.858;9.184;2023-09-30T11:51:52;20.90;99.90
9219;DHT22;4644;48.858;9.184;2023-09-30T11:54:20;20.80;99.90
9219;DHT22;4644;48.858;9.184;2023-09-30T11:56:48;20.80;99.90
9219;DHT22;4644;48.858;9.184;2023-09-30T11:59:16;20.80;99.90
9219;DHT22;4644;48.858;9.184;2023-09-30T12:01:45;20.70;99.90
9219;DHT22;4644;48.858;9.184;2023-09-30T12:04:15;20.70;99.90
9219;DHT22;4644;48.858;9.184;2023-09-30T12:06:45;20.80;99.90
9219;DHT22;4644;48.858;9.184;2023-09-30T12:09:12;20.90;99.90
9219;DHT22;4644;48.858;9.184;2023-09-30T12:11:40;20.90;99.90
9219;DHT22;4644;48.858;9.184;2023-09-30T12:14:10;21.10;99.90
9219;DHT22;4644;48.858;9.184;2023-09-30T12:16:37;21.20;99.90
9219;DHT22;4644;48.858;9.184;2023-09-30T12:19:04;21.10;99.90
9219;DHT22;4644;48.858;9.184;2023-09-30T12:21:33;21.10;99.90
9219;DHT22;4644;48.858;9.184;2023-09-30T12:24:02;21.00;99.90
9219;DHT22;4644;48.858;9.184;2023-09-30T12:26:30;21.00;99.90
9219;DHT22;4644;48.858;9.184;2023-09-30T12:28:57;21.00;99.90
9219;DHT22;4644;48.858;9.184;2023-09-30T12:31:24;21.00;99.90
9219;DHT22;4644;48.858;9.184;2023-09-30T12:33:51;20.90;99.90
9219;DHT22;4644;48.858;9.184;2023-09-30T12:36:20;20.90;99.90
9219;DHT22;4644;48.858;9.184;2023-09-30T12:38:49;21.00;99.90
9219;DHT22;4644;48.858;9.184;2023-09-30T12:41:16;21.00;99.90
9219;DHT22;4644;48.858;9.184;2023-09-30T12:43:45;21.20;99.90
9219;DHT22;4644;48.858;9.184;2023-09-30T12:46:11;21.30;99.90
9219;DHT22;4644;48.858;9.184;2023-09-30T12:48:39;21.30;99.90
9219;DHT22;4644;48.858;9.184;2023-09-30T12:51:06;21.10;99.90
9219;DHT22;4644;48.858;9.184;2023-09-30T12:53:34;21.00;99.90
9219;DHT22;4644;48.858;9.184;2023-09-30T12:56:03;21.00;99.90
9219;DHT22;4644;48.858;9.184;2023-09-30T12:58:30;21.10;99.90
9219;DHT22;4644;48.858;9.184;2023-09-30T13:00:58;21.20;99.90
9219;DHT22;4644;48.858;9.184;2023-09-30T13:03:25;21.20;99.90
9219;DHT22;4644;48.858;9.184;2023-09-30T13:05:52;21.10;99.90
9219;DHT22;4644;48.858;9.184;2023-09-30T13:08:20;20.90;99.90
9219;DHT22;4644;48.858;9.184;2023-09-30T13:10:46;20.90;99.90
9219;DHT22;4644;48.858;9.184;2023-09-30T13:13:17;20.80;99.90
9219;DHT22;4644;48.858;9.184;2023-09-30T13:15:44;20.70;99.90
9219;DHT22;4644;48.858;9.184;2023-09-30T13:18:11;20.70;99.90
9219;DHT22;4644;48.858;9.184;2023-09-30T13:20:38;20.70;99.90
9219;DHT22;4644;48.858;9.184;2023-09-30T13:23:06;20.70;99.90
9219;DHT22;4644;48.858;9.184;2023-09-30T13:25:33;20.80;99.90
9219;DHT22;4644;48.858;9.184;2023-09-30T13:28:00;20.80;99.90
9219;DHT22;4644;48.858;9.184;2023-09-30T13:30:29;20.80;99.90
9219;DHT22;4644;48.858;9.184;2023-09-30T13:32:56;20.80;99.90
9219;DHT22;4644;48.858;9.184;2023-09-30T13:35:22;20.90;99.90
9219;DHT22;4644;48.858;9.184;2023-09-30T13:37:50;21.00;99.90
9219;DHT22;4644;48.858;9.184;2023-09-30T13:40:18;21.00;99.90
9219;DHT22;4644;48.858;9.184;2023-09-30T13:42:45;21.00;99.90
9219;DHT22;4644;48.858;9.184;2023-09-30T13:45:12;21.00;99.90
9219;DHT22;4644;48.858;9.184;2023-09-30T13:47:40;20.90;99.90
9219;DHT22;4644;48.858;9.184;2023-09-30T13:50:08;20.90;99.90
9219;DHT22;4644;48.858;9.184;2023-09-30T13:52:35;21.00;99.90
9219;DHT22;4644;48.858;9.184;2023-09-30T13:55:03;21.10;99.90
9219;DHT22;4644;48.858;9.184;2023-09-30T13:57:30;21.20;99.90
9219;DHT22;4644;48.858;9.184;2023-09-30T13:59:57;21.20;99.90
9219;DHT22;4644;48.858;9.184;2023-09-30T14:02:25;21.30;99.90
9219;DHT22;4644;48.858;9.184;2023-09-30T14:04:53;21.30;99.90
9219;DHT22;4644;48.858;9.184;2023-09-30T14:07:20;21.40;99.90
9219;DHT22;4644;48.858;9.184;2023-09-30T14:09:48;21.40;99.90
9219;DHT22;4644;48.858;9.184;2023-09-30T14:12:15;21.30;99.90
9219;DHT22;4644;48.858;9.184;2023-09-30T14:14:42;21.10;99.90
9219;DHT22;4644;48.858;9.184;2023-09-30T14:17:09;21.00;99.90
9219;DHT22;4644;48.858;9.184;2023-09-30T14:19:37;21.00;99.90
9219;DHT22;4644;48.858;9.184;2023-09-30T14:22:07;21.00;99.90
9219;DHT22;4644;48.858;9.184;2023-09-30T14:24:35;20.90;99.90
9219;DHT22;4644;48.858;9.184;2023-09-30T14:27:02;20.90;99.90
9219;DHT22;4644;48.858;9.184;2023-09-30T14:29:30;21.00;99.90
9219;DHT22;4644;48.858;9.184;2023-09-30T14:31:57;21.00;99.90
9219;DHT22;4644;48.858;9.184;2023-09-30T14:34:25;21.00;99.90
9219;DHT22;4644;48.858;9.184;2023-09-30T14:36:52;21.00;99.90
9219;DHT22;4644;48.858;9.184;2023-09-30T14:39:20;21.00;99.90
9219;DHT22;4644;48.858;9.184;2023-09-30T14:41:47;21.00;99.90
9219;DHT22;4644;48.858;9.184;2023-09-30T14:44:14;21.10;99.90
9219;DHT22;4644;48.858;9.184;2023-09-30T14:46:42;21.00;99.90
9219;DHT22;4644;48.858;9.184;2023-09-30T14:49:10;21.00;99.90
9219;DHT22;4644;48.858;9.184;2023-09-30T14:51:37;21.00;99.90
9219;DHT22;4644;48.858;9.184;2023-09-30T14:54:05;20.90;99.90
9219;DHT22;4644;48.858;9.184;2023-09-30T14:56:36;21.00;99.90
9219;DHT22;4644;48.858;9.184;2023-09-30T14:59:03;20.90;99.90
9219;DHT22;4644;48.858;9.184;2023-09-30T15:01:31;20.80;99.90
9219;DHT22;4644;48.858;9.184;2023-09-30T15:03:59;20.80;99.90
9219;DHT22;4644;48.858;9.184;2023-09-30T15:06:25;20.80;99.90
9219;DHT22;4644;48.858;9.184;2023-09-30T15:08:54;20.80;99.90
9219;DHT22;4644;48.858;9.184;2023-09-30T15:11:21;20.80;99.90
9219;DHT22;4644;48.858;9.184;2023-09-30T15:13:50;20.80;99.90
9219;DHT22;4644;48.858;9.184;2023-09-30T15:16:19;20.80;99.90
9219;DHT22;4644;48.858;9.184;2023-09-30T15:18:46;20.70;99.90
9219;DHT22;4644;48.858;9.184;2023-09-30T15:21:13;20.80;99.90
9219;DHT22;4644;48.858;9.184;2023-09-30T15:23:41;20.80;99.90
9219;DHT22;4644;48.858;9.184;2023-09-30T15:26:08;20.80;99.90
9219;DHT22;4644;48.858;9.184;2023-09-30T15:28:36;20.70;99.90
9219;DHT22;4644;48.858;9.184;2023-09-30T15:31:05;20.60;99.90
9219;DHT22;4644;48.858;9.184;2023-09-30T15:33:32;20.60;99.90
9219;DHT22;4644;48.858;9.184;2023-09-30T15:35:59;20.60;99.90
9219;DHT22;4644;48.858;9.184;2023-09-30T15:38:26;20.50;99.90
9219;DHT22;4644;48.858;9.184;2023-09-30T15:40:54;20.50;99.90
9219;DHT22;4644;48.858;9.184;2023-09-30T15:43:23;20.40;99.90
9219;DHT22;4644;48.858;9.184;2023-09-30T15:45:51;20.40;99.90
9219;DHT22;4644;48.858;9.184;2023-09-30T15:48:20;20.40;99.90
9219;DHT22;4644;48.858;9.184;2023-09-30T15:50:47;20.40;99.90
9219;DHT22;4644;48.858;9.184;2023-09-30T15:53:14;20.40;99.90
9219;DHT22;4644;48.858;9.184;2023-09-30T15:55:41;20.30;99.90
9219;DHT22;4644;48.858;9.184;2023-09-30T15:58:08;20.20;99.90
9219;DHT22;4644;48.858;9.184;2023-09-30T16:00:36;20.30;99.90
9219;DHT22;4644;48.858;9.184;2023-09-30T16:03:04;20.20;99.90
9219;DHT22;4644;48.858;9.184;2023-09-30T16:05:33;20.20;99.90
9219;DHT22;4644;48.858;9.184;2023-09-30T16:08:03;20.20;99.90
9219;DHT22;4644;48.858;9.184;2023-09-30T16:10:30;20.20;99.90